Flight Track Log - Related Links

Times and Time Zones

All times are in EDT time to prevent confusion due to time zone crossing. See the AKX1695 flight status page for this flight to view local times or setup timezone preferences in your user account.

Time Position Orientation Groundspeed Altitude Reporting Facility
EDT Latitude Longitude Course Direction KTS MPH feet Rate Location/Type
Fri 01:56:00 AM 34.9290 135.7123 57° Northeast  Level Estimated
Fri 01:57:00 AM 34.9767 135.8039 58° Northeast  Level Estimated
Fri 01:58:00 AM 35.0243 135.8956 58° Northeast  Level Estimated
Fri 01:59:00 AM 35.0718 135.9874 58° Northeast  Level Estimated
Fri 02:00:00 AM 35.1193 136.0793 58° Northeast  Level Estimated
Fri 02:01:00 AM 35.1667 136.1713 58° Northeast  Level Estimated
Fri 02:02:00 AM 35.2141 136.2634 58° Northeast  Level Estimated
Fri 02:03:00 AM 35.2613 136.3557 58° Northeast  Level Estimated
Fri 02:04:00 AM 35.3085 136.4480 58° Northeast  Level Estimated
Fri 02:05:00 AM 35.3557 136.5404 58° Northeast  Level Estimated
Fri 02:06:00 AM 35.4027 136.6330 58° Northeast  Level Estimated
Fri 02:07:00 AM 35.4497 136.7256 58° Northeast  Level Estimated
Fri 02:08:00 AM 35.4966 136.8184 58° Northeast  Level Estimated
Fri 02:09:00 AM 35.5435 136.9113 58° Northeast  Level Estimated
Fri 02:10:00 AM 35.5902 137.0042 58° Northeast  Level Estimated
Fri 02:11:00 AM 35.6370 137.0973 58° Northeast  Level Estimated
Fri 02:12:00 AM 35.6836 137.1905 58° Northeast  Level Estimated
Fri 02:13:00 AM 35.7301 137.2838 58° Northeast  Level Estimated
Fri 02:14:00 AM 35.7766 137.3773 58° Northeast  Level Estimated
Fri 02:15:00 AM 35.8230 137.4708 59° Northeast  Level Estimated
Fri 02:16:00 AM 35.8694 137.5644 59° Northeast  Level Estimated
Fri 02:17:00 AM 35.9156 137.6582 59° Northeast  Level Estimated
Fri 02:18:00 AM 35.9618 137.7520 59° Northeast  Level Estimated
Fri 02:19:00 AM 36.0080 137.8460 59° Northeast  Level Estimated
Fri 02:20:00 AM 36.0540 137.9400 59° Northeast  Level Estimated
Fri 02:21:00 AM 36.1000 138.0342 59° Northeast  Level Estimated
Fri 02:22:00 AM 36.1459 138.1285 59° Northeast  Level Estimated
Fri 02:23:00 AM 36.1917 138.2229 59° Northeast  Level Estimated
Fri 02:24:00 AM 36.2375 138.3174 59° Northeast  Level Estimated
Fri 02:25:00 AM 36.2832 138.4121 59° Northeast  Level Estimated
Fri 02:26:00 AM 36.3288 138.5068 59° Northeast  Level Estimated
Fri 02:27:00 AM 36.3743 138.6017 59° Northeast  Level Estimated
Fri 02:28:00 AM 36.4197 138.6966 59° Northeast  Level Estimated
Fri 02:29:00 AM 36.4651 138.7917 59° Northeast  Level Estimated
Fri 02:30:00 AM 36.5104 138.8869 59° Northeast  Level Estimated
Fri 02:31:00 AM 36.5556 138.9821 59° Northeast  Level Estimated
Fri 02:32:00 AM 36.6008 139.0775 59° Northeast  Level Estimated
Fri 02:33:00 AM 36.6459 139.1731 60° Northeast  Level Estimated
Fri 02:34:00 AM 36.6909 139.2687 60° Northeast  Level Estimated
Fri 02:35:00 AM 36.7358 139.3644 60° Northeast  Level Estimated
Fri 02:36:00 AM 36.7807 139.4603 60° Northeast  Level Estimated
Fri 02:37:00 AM 36.8254 139.5562 60° Northeast  Level Estimated
Fri 02:38:00 AM 36.8701 139.6523 60° Northeast  Level Estimated
Fri 02:39:00 AM 36.9147 139.7485 60° Northeast  Level Estimated
Fri 02:40:00 AM 36.9593 139.8448 60° Northeast  Level Estimated
Fri 02:41:00 AM 37.0037 139.9412 60° Northeast  Level Estimated
Fri 02:42:00 AM 37.0481 140.0377 60° Northeast  Level Estimated
Fri 02:43:00 AM 37.0924 140.1344 60° Northeast  Level Estimated
Fri 02:44:00 AM 37.1366 140.2311 60° Northeast  Level Estimated
Fri 02:45:00 AM 37.1808 140.3280 60° Northeast  Level Estimated
Fri 02:46:00 AM 37.2248 140.4250 60° Northeast  Level Estimated
Fri 02:47:00 AM 37.2274 140.4307 60° Northeast  Level Estimated
Fri 02:48:00 AM 37.2274 140.4307 302° West  Level Estimated
Fri 02:49:00 AM 37.2274 140.4307 302° West  Level Estimated
Fri 02:50:00 AM 37.2274 140.4307 302° West  Level Estimated
Fri 02:51:00 AM 37.2274 140.4307 302° West  Level Estimated
Fri 02:52:00 AM 37.2274 140.4307 302° West  Level Estimated
Fri 02:53:00 AM 37.2274 140.4307 302° West  Level Estimated
Fri 02:54:00 AM 37.2274 140.4307 302° West  Level Estimated
Fri 02:55:00 AM 37.2274 140.4307 302° West  Level Estimated
Fri 02:56:00 AM 37.2274 140.4307 302° West  Level Estimated
Fri 02:57:00 AM 37.2274 140.4307 302° West  Level Estimated
Fri 02:58:00 AM 37.2274 140.4307 302° West  Level Estimated
Fri 02:59:00 AM 37.2274 140.4307 302° West  Level Estimated

Login

Don't have an account? Register now (free) for customized features, flight alerts, and more!